»·PEaware :: N516TT KALW-8W5

N516TT :: KALW-8W5

FLIGHT INFORMATION

Flight Status: Arrived
Operator: Privately registered:
United States
More flights under this callsign
Pilot: Gareth S. (19921)
Aircraft: CIRRUS SR-22 TURBO
(S22T)
More flights by this aircraft type
Origin: KALW Walla Walla Regl
United States
Destination: 8W5 Apex Airpark
United States
More flights between these airports :: More routes between these airports
Route:
File this flight plan on PilotEdge
Remarks:
Altitude:
(Current/Filed)
4,500ft
Speed:
(Current/Filed)
150kts
Departed: 02-Oct-20 12:36 PM
Arrived: 02-Oct-20 04:11 PM
Distance/Time
Traveled:
205nm/3:34
Distance/Time
To Go:
Arrived

Flight Plot

Page will automatically refresh every two minutes.

Flight plan parsing failed; only flown route is shown


Map Options




Map Legend


Flown Route
Filed Route
Departure Airport
Arrival Airport
Navaid (VOR, NDB)
Fix

Horizontal Profiles

Position Reports

Time Latitude Longitude Heading Altitude Ground
Speed
02-Oct-20 12:30 46.089998 -118.284022 201 1180ft 0kts
02-Oct-20 12:31 46.086384 -118.287779 223 1169ft 14kts
02-Oct-20 12:32 46.084120 -118.291306 276 1158ft 0kts
02-Oct-20 12:33 46.084120 -118.291305 276 1158ft 0kts
02-Oct-20 12:34 46.084839 -118.292208 31 1156ft 26kts
02-Oct-20 12:35 46.104480 -118.269439 35 2032ft 118kts
02-Oct-20 12:36 46.130326 -118.238049 34 3520ft 111kts
02-Oct-20 12:37 46.159936 -118.206833 40 4092ft 134kts
02-Oct-20 12:38 46.193776 -118.175340 29 4010ft 148kts
02-Oct-20 12:39 46.231892 -118.153064 19 3552ft 139kts
02-Oct-20 12:40 46.265591 -118.139331 1 3628ft 116kts
02-Oct-20 12:41 46.291330 -118.111908 63 4021ft 153kts
02-Oct-20 12:42 46.299049 -118.046791 87 3998ft 165kts
02-Oct-20 12:43 46.304903 -117.987629 67 3999ft 142kts
02-Oct-20 12:44 46.331573 -117.953358 4 4003ft 137kts
02-Oct-20 12:45 46.367427 -117.957844 296 4009ft 135kts
02-Oct-20 12:47 46.349726 -118.001786 208 4004ft 138kts
02-Oct-20 12:48 46.313341 -118.009577 158 4004ft 140kts
02-Oct-20 12:49 46.283272 -117.976663 92 4007ft 140kts
02-Oct-20 12:50 46.311436 -117.965167 329 4005ft 135kts
02-Oct-20 12:51 46.334155 -117.959324 148 3999ft 140kts
02-Oct-20 12:52 46.326130 -117.992817 340 3820ft 142kts
02-Oct-20 12:53 46.350384 -117.955102 62 3623ft 147kts
02-Oct-20 12:54 46.382710 -117.932272 16 3621ft 127kts
02-Oct-20 12:55 46.415895 -117.935193 348 3729ft 124kts
02-Oct-20 12:56 46.455684 -117.938215 354 3468ft 157kts
02-Oct-20 12:57 46.493961 -117.956134 314 3449ft 152kts
02-Oct-20 12:58 46.519097 -117.926711 28 3416ft 149kts
02-Oct-20 12:59 46.522724 -117.948060 138 3543ft 146kts
02-Oct-20 13:00 46.532924 -117.890704 77 3446ft 148kts
02-Oct-20 13:00 46.519938 -117.847932 118 3448ft 129kts
02-Oct-20 13:02 46.509123 -117.791161 81 3575ft 118kts
02-Oct-20 13:03 46.537276 -117.769489 359 3598ft 117kts
02-Oct-20 13:03 46.565829 -117.773134 11 3715ft 134kts
02-Oct-20 13:04 46.604995 -117.773809 349 3747ft 147kts
02-Oct-20 13:06 46.646801 -117.801837 329 3972ft 139kts
02-Oct-20 13:06 46.675062 -117.824436 329 4000ft 139kts
02-Oct-20 13:07 46.709294 -117.851826 329 3999ft 139kts
02-Oct-20 13:08 46.743656 -117.879295 329 4002ft 140kts
02-Oct-20 13:09 46.777764 -117.906584 329 4009ft 139kts
02-Oct-20 13:10 46.815477 -117.918486 353 4016ft 140kts
02-Oct-20 13:11 46.854578 -117.922485 353 4021ft 141kts
02-Oct-20 13:12 46.893936 -117.926514 353 4027ft 141kts
02-Oct-20 13:13 46.931382 -117.913014 335 4024ft 138kts
02-Oct-20 13:14 46.940269 -117.967390 267 3767ft 143kts
02-Oct-20 13:15 46.912517 -118.002613 142 2458ft 120kts
02-Oct-20 13:16 46.930007 -117.979489 30 1583ft 78kts
02-Oct-20 13:17 46.954454 -117.966423 328 2741ft 105kts
02-Oct-20 13:18 46.951983 -117.963727 326 3812ft 125kts
02-Oct-20 13:19 46.938153 -118.011044 239 4020ft 137kts
02-Oct-20 13:20 46.918541 -118.060477 239 4011ft 140kts
02-Oct-20 13:21 46.898821 -118.110144 239 4008ft 140kts
02-Oct-20 13:22 46.879151 -118.159701 239 4008ft 139kts
02-Oct-20 13:23 46.859553 -118.209089 239 4007ft 140kts
02-Oct-20 13:24 46.839833 -118.258814 239 4005ft 140kts
02-Oct-20 13:25 46.840968 -118.306939 332 3988ft 141kts
02-Oct-20 13:26 46.864109 -118.334520 219 3674ft 147kts
02-Oct-20 13:27 46.846324 -118.382709 244 3978ft 131kts
02-Oct-20 13:28 46.838893 -118.432228 260 4912ft 109kts
02-Oct-20 13:29 46.848404 -118.482959 306 5017ft 157kts
02-Oct-20 13:30 46.878792 -118.528737 310 5004ft 149kts
02-Oct-20 13:31 46.906905 -118.574309 310 5009ft 151kts
02-Oct-20 13:32 46.935309 -118.620335 310 5008ft 152kts
02-Oct-20 13:33 46.963917 -118.666695 310 5009ft 151kts
02-Oct-20 13:34 46.992464 -118.712942 310 5009ft 152kts
02-Oct-20 13:35 47.021063 -118.759271 310 5010ft 152kts
02-Oct-20 13:36 47.049665 -118.805586 310 5009ft 152kts
02-Oct-20 13:37 47.078179 -118.851756 310 5007ft 152kts
02-Oct-20 13:38 47.106814 -118.898097 310 5005ft 152kts
02-Oct-20 13:39 47.135468 -118.944453 310 5003ft 152kts
02-Oct-20 13:40 47.164262 -118.991018 310 5002ft 152kts
02-Oct-20 13:41 47.192976 -119.037755 310 5000ft 152kts
02-Oct-20 13:42 47.221710 -119.084590 310 4999ft 153kts
02-Oct-20 13:43 47.250250 -119.131089 310 5000ft 153kts
02-Oct-20 13:44 47.278999 -119.177926 310 4999ft 153kts
02-Oct-20 13:45 47.307663 -119.224606 310 5000ft 153kts
02-Oct-20 13:46 47.336442 -119.271462 310 4999ft 153kts
02-Oct-20 13:47 47.365078 -119.318104 310 4999ft 153kts
02-Oct-20 13:48 47.393854 -119.364922 312 4999ft 153kts
02-Oct-20 13:49 47.433713 -119.386747 341 5000ft 153kts
02-Oct-20 13:50 47.474830 -119.406050 341 4999ft 154kts
02-Oct-20 13:51 47.515768 -119.425281 340 5000ft 153kts
02-Oct-20 13:52 47.556813 -119.444873 341 4999ft 154kts
02-Oct-20 13:53 47.597577 -119.464362 340 4980ft 157kts
02-Oct-20 13:54 47.638762 -119.484404 340 4949ft 161kts
02-Oct-20 13:55 47.680257 -119.504247 339 4987ft 161kts
02-Oct-20 13:56 47.722849 -119.524688 339 4963ft 161kts
02-Oct-20 13:57 47.764517 -119.544913 340 4982ft 156kts
02-Oct-20 13:58 47.805792 -119.564481 341 5039ft 156kts
02-Oct-20 13:59 47.840417 -119.596945 266 5016ft 159kts
02-Oct-20 14:00 47.823597 -119.657871 245 4989ft 158kts
02-Oct-20 14:01 47.805800 -119.717643 244 4986ft 157kts
02-Oct-20 14:02 47.787915 -119.778541 246 4972ft 160kts
02-Oct-20 14:03 47.770189 -119.838301 245 4996ft 152kts
02-Oct-20 14:04 47.753140 -119.896369 245 4999ft 151kts
02-Oct-20 14:05 47.736249 -119.954057 245 4999ft 151kts
02-Oct-20 14:06 47.719277 -120.012092 245 4999ft 151kts
02-Oct-20 14:07 47.700820 -120.067792 206 5035ft 134kts
02-Oct-20 14:08 47.668870 -120.061219 165 3903ft 109kts
02-Oct-20 14:09 47.647011 -120.039961 95 3372ft 99kts
02-Oct-20 14:10 47.655820 -120.043472 272 2746ft 85kts
02-Oct-20 14:11 47.655453 -120.060363 173 2643ft 8kts
02-Oct-20 14:12 47.655132 -120.059562 358 2643ft 0kts
02-Oct-20 14:13 47.655132 -120.059562 358 2643ft 0kts
02-Oct-20 14:14 47.655132 -120.059562 358 2643ft 0kts
02-Oct-20 14:15 47.655132 -120.059562 358 2643ft 0kts
02-Oct-20 14:16 47.655132 -120.059562 358 2643ft 0kts
02-Oct-20 14:17 47.655132 -120.059562 358 2643ft 0kts
02-Oct-20 14:18 47.655132 -120.059562 358 2643ft 0kts
02-Oct-20 14:19 47.655132 -120.059562 358 2643ft 0kts
02-Oct-20 14:20 47.655132 -120.059562 358 2643ft 0kts
02-Oct-20 14:21 47.655132 -120.059562 358 2643ft 0kts
02-Oct-20 14:22 47.655132 -120.059562 358 2643ft 0kts
02-Oct-20 14:23 47.655132 -120.059562 358 2643ft 0kts
02-Oct-20 14:24 47.655132 -120.059562 358 2643ft 0kts
02-Oct-20 14:25 47.655132 -120.059562 358 2643ft 0kts
02-Oct-20 14:26 47.655132 -120.059562 358 2643ft 0kts
02-Oct-20 14:27 47.655132 -120.059562 358 2643ft 0kts
02-Oct-20 14:28 47.655132 -120.059562 358 2643ft 0kts
02-Oct-20 14:29 47.655132 -120.059562 358 2643ft 0kts
02-Oct-20 14:30 47.655132 -120.059562 358 2643ft 0kts
02-Oct-20 14:31 47.655132 -120.059562 358 2643ft 0kts
02-Oct-20 14:32 47.655132 -120.059562 358 2643ft 0kts
02-Oct-20 14:33 47.655132 -120.059562 358 2643ft 0kts
02-Oct-20 14:34 47.655132 -120.059562 358 2643ft 0kts
02-Oct-20 14:35 47.655132 -120.059562 358 2643ft 0kts
02-Oct-20 14:36 47.655132 -120.059562 358 2643ft 0kts
02-Oct-20 14:37 47.655323 -120.059907 238 2643ft 4kts
02-Oct-20 14:38 47.656011 -120.057429 90 2643ft 28kts
02-Oct-20 14:40 47.655855 -120.050789 119 2643ft 7kts
02-Oct-20 14:41 47.655963 -120.051110 269 2643ft 0kts
02-Oct-20 14:42 47.656454 -120.072431 269 3109ft 105kts
02-Oct-20 14:43 47.658168 -120.118281 275 4165ft 122kts
02-Oct-20 14:44 47.651063 -120.177430 244 4244ft 161kts
02-Oct-20 14:45 47.627540 -120.230993 200 4237ft 158kts
02-Oct-20 14:46 47.591533 -120.252805 201 4204ft 131kts
02-Oct-20 14:47 47.557848 -120.271973 194 4031ft 129kts
02-Oct-20 14:48 47.523280 -120.281649 198 3945ft 124kts
02-Oct-20 14:49 47.503488 -120.318469 234 4192ft 119kts
02-Oct-20 14:50 47.499268 -120.366840 280 4512ft 128kts
02-Oct-20 14:51 47.512673 -120.420408 292 4497ft 141kts
02-Oct-20 14:52 47.529203 -120.475022 288 4371ft 149kts
02-Oct-20 14:53 47.544018 -120.534304 295 4015ft 159kts
02-Oct-20 14:53 47.563241 -120.573996 309 3787ft 124kts
02-Oct-20 14:55 47.591313 -120.612072 308 3904ft 120kts
02-Oct-20 14:56 47.618222 -120.639511 354 4122ft 126kts
02-Oct-20 14:56 47.648348 -120.638636 2 4177ft 137kts
02-Oct-20 14:58 47.695674 -120.631442 18 4115ft 155kts
02-Oct-20 14:59 47.736640 -120.637879 341 4277ft 149kts
02-Oct-20 14:59 47.770781 -120.643764 356 4455ft 152kts
02-Oct-20 15:00 47.807445 -120.668256 296 3426ft 140kts
02-Oct-20 15:01 47.822794 -120.726025 286 2306ft 128kts
02-Oct-20 15:02 47.807977 -120.717621 113 2859ft 109kts
02-Oct-20 15:03 47.817359 -120.711891 286 2114ft 102kts
02-Oct-20 15:04 47.819513 -120.749571 192 2989ft 108kts
02-Oct-20 15:05 47.801546 -120.711317 104 4554ft 121kts
02-Oct-20 15:06 47.820014 -120.704972 288 6046ft 135kts
02-Oct-20 15:07 47.818248 -120.753041 175 7313ft 149kts
02-Oct-20 15:08 47.795759 -120.701398 115 8468ft 165kts
02-Oct-20 15:09 47.806319 -120.652170 349 8463ft 165kts
02-Oct-20 15:10 47.828940 -120.703643 281 8410ft 161kts
02-Oct-20 15:11 47.838834 -120.768822 281 8407ft 160kts
02-Oct-20 15:12 47.849095 -120.835845 281 8412ft 170kts
02-Oct-20 15:13 47.859948 -120.906091 281 8409ft 172kts
02-Oct-20 15:14 47.870973 -120.976375 281 8411ft 172kts
02-Oct-20 15:15 47.882112 -121.046971 281 8421ft 172kts
02-Oct-20 15:16 47.893217 -121.117019 281 8430ft 172kts
02-Oct-20 15:17 47.904456 -121.187732 281 8437ft 173kts
02-Oct-20 15:18 47.915723 -121.258508 281 8437ft 173kts
02-Oct-20 15:19 47.927254 -121.329108 282 8434ft 173kts
02-Oct-20 15:20 47.938314 -121.396112 282 8428ft 158kts
02-Oct-20 15:21 47.948967 -121.459930 281 8430ft 156kts
02-Oct-20 15:22 47.952990 -121.525312 272 8428ft 156kts
02-Oct-20 15:23 47.961079 -121.589736 282 8427ft 157kts
02-Oct-20 15:24 47.971834 -121.653658 281 8424ft 157kts
02-Oct-20 15:25 47.965995 -121.707727 177 8231ft 163kts
02-Oct-20 15:26 47.957572 -121.664354 16 7885ft 149kts
02-Oct-20 15:27 47.959495 -121.695246 160 7389ft 123kts
02-Oct-20 15:28 47.971542 -121.702368 270 6719ft 137kts
02-Oct-20 15:29 47.966333 -121.756719 251 6267ft 138kts
02-Oct-20 15:30 47.953561 -121.820649 231 6164ft 163kts
02-Oct-20 15:31 47.929245 -121.887602 245 5036ft 191kts
02-Oct-20 15:32 47.902488 -121.954197 222 4205ft 186kts
02-Oct-20 15:33 47.865841 -122.004776 222 2797ft 168kts
02-Oct-20 15:34 47.854484 -122.043735 15 1810ft 111kts
02-Oct-20 15:35 47.872602 -122.019758 111 674ft 97kts
02-Oct-20 15:36 47.871271 -121.991986 139 52ft 3kts
02-Oct-20 15:37 47.871109 -121.991483 335 52ft 0kts
02-Oct-20 15:38 47.871109 -121.991483 335 52ft 0kts
02-Oct-20 15:39 47.871109 -121.991483 335 52ft 0kts
02-Oct-20 15:40 47.871109 -121.991483 335 52ft 0kts
02-Oct-20 15:41 47.871109 -121.991483 335 52ft 0kts
02-Oct-20 15:42 47.871109 -121.991483 335 52ft 0kts
02-Oct-20 15:43 47.871109 -121.991483 335 52ft 0kts
02-Oct-20 15:44 47.871109 -121.991483 335 52ft 0kts
02-Oct-20 15:45 47.871109 -121.991483 335 52ft 0kts
02-Oct-20 15:46 47.871109 -121.991483 335 52ft 0kts
02-Oct-20 15:47 47.871109 -121.991483 335 52ft 0kts
02-Oct-20 15:48 47.871109 -121.991483 335 52ft 0kts
02-Oct-20 15:49 47.871122 -121.991492 332 52ft 0kts
02-Oct-20 15:50 47.871122 -121.991492 332 52ft 0kts
02-Oct-20 15:51 47.871355 -121.995667 272 52ft 77kts
02-Oct-20 15:52 47.890671 -122.023829 321 1548ft 114kts
02-Oct-20 15:53 47.917804 -122.055041 322 2525ft 156kts
02-Oct-20 15:54 47.936329 -122.113772 260 2514ft 166kts
02-Oct-20 15:55 47.928693 -122.183048 256 2521ft 160kts
02-Oct-20 15:56 47.918778 -122.246385 256 2490ft 145kts
02-Oct-20 15:57 47.910035 -122.301795 255 2451ft 138kts
02-Oct-20 15:58 47.900853 -122.362063 257 2513ft 156kts
02-Oct-20 15:59 47.891205 -122.425736 256 2527ft 155kts
02-Oct-20 16:00 47.877634 -122.487049 249 2518ft 154kts
02-Oct-20 16:01 47.863714 -122.548999 251 2514ft 154kts
02-Oct-20 16:02 47.845015 -122.605588 220 2532ft 154kts
02-Oct-20 16:03 47.805474 -122.629816 191 2528ft 156kts
02-Oct-20 16:04 47.762898 -122.643732 194 2561ft 150kts
02-Oct-20 16:05 47.721127 -122.657828 191 2501ft 152kts
02-Oct-20 16:06 47.679286 -122.671681 191 2451ft 158kts
02-Oct-20 16:07 47.642864 -122.686224 192 1931ft 104kts
02-Oct-20 16:08 47.635467 -122.716718 269 1478ft 95kts
02-Oct-20 16:09 47.649976 -122.734567 10 617ft 89kts
02-Oct-20 16:10 47.658568 -122.732399 67 530ft 0kts
02-Oct-20 16:11 47.658568 -122.732399 67 530ft 0kts
02-Oct-20 16:12 47.658568 -122.732399 67 530ft 0kts
02-Oct-20 16:13 47.658568 -122.732400 67 530ft 0kts
02-Oct-20 16:14 47.658568 -122.732400 67 530ft 0kts
02-Oct-20 16:15 47.658568 -122.732400 67 530ft 0kts
02-Oct-20 16:16 47.658568 -122.732400 67 530ft 0kts
02-Oct-20 16:17 47.658568 -122.732400 67 530ft 0kts
02-Oct-20 16:18 47.658568 -122.732400 67 530ft 0kts
02-Oct-20 16:19 47.658568 -122.732400 67 530ft 0kts
02-Oct-20 16:20 47.658568 -122.732400 67 530ft 0kts
02-Oct-20 16:21 47.658568 -122.732400 67 530ft 0kts
02-Oct-20 16:22 47.658568 -122.732400 67 530ft 0kts
02-Oct-20 16:23 47.658568 -122.732400 67 530ft 0kts
02-Oct-20 16:24 47.658568 -122.732400 67 530ft 0kts

Navigation Log

Ident Type
Flight plan parsing failed, navigation log unavailable